sensor_id;sensor_type;location;lat;lon;timestamp;temperature;humidity
8436;DHT22;4255;48.730;9.156;2023-08-17T00:01:39;21.70;99.90
8436;DHT22;4255;48.730;9.156;2023-08-17T00:04:05;21.80;99.90
8436;DHT22;4255;48.730;9.156;2023-08-17T00:06:31;21.70;99.90
8436;DHT22;4255;48.730;9.156;2023-08-17T00:08:57;21.70;99.90
8436;DHT22;4255;48.730;9.156;2023-08-17T00:11:22;21.80;99.90
8436;DHT22;4255;48.730;9.156;2023-08-17T00:13:48;21.80;99.90
8436;DHT22;4255;48.730;9.156;2023-08-17T00:16:14;21.90;99.90
8436;DHT22;4255;48.730;9.156;2023-08-17T00:18:39;21.90;99.90
8436;DHT22;4255;48.730;9.156;2023-08-17T00:21:05;21.90;99.90
8436;DHT22;4255;48.730;9.156;2023-08-17T00:23:31;21.90;99.90
8436;DHT22;4255;48.730;9.156;2023-08-17T00:25:57;21.80;99.90
8436;DHT22;4255;48.730;9.156;2023-08-17T00:28:22;21.80;99.90
8436;DHT22;4255;48.730;9.156;2023-08-17T00:30:48;21.80;99.90
8436;DHT22;4255;48.730;9.156;2023-08-17T00:33:13;21.70;99.90
8436;DHT22;4255;48.730;9.156;2023-08-17T00:35:39;21.70;99.90
8436;DHT22;4255;48.730;9.156;2023-08-17T00:38:04;21.50;99.90
8436;DHT22;4255;48.730;9.156;2023-08-17T00:40:30;21.60;99.90
8436;DHT22;4255;48.730;9.156;2023-08-17T00:42:56;21.70;99.90
8436;DHT22;4255;48.730;9.156;2023-08-17T00:45:22;21.70;99.90
8436;DHT22;4255;48.730;9.156;2023-08-17T00:47:49;21.70;99.90
8436;DHT22;4255;48.730;9.156;2023-08-17T00:50:15;21.80;99.90
8436;DHT22;4255;48.730;9.156;2023-08-17T00:52:41;21.80;99.90
8436;DHT22;4255;48.730;9.156;2023-08-17T00:55:08;21.80;99.90
8436;DHT22;4255;48.730;9.156;2023-08-17T00:57:41;21.90;99.90
8436;DHT22;4255;48.730;9.156;2023-08-17T01:00:09;22.00;99.90
8436;DHT22;4255;48.730;9.156;2023-08-17T01:02:35;21.80;99.90
8436;DHT22;4255;48.730;9.156;2023-08-17T01:05:01;21.70;99.90
8436;DHT22;4255;48.730;9.156;2023-08-17T01:07:27;21.70;99.90
8436;DHT22;4255;48.730;9.156;2023-08-17T01:09:53;21.50;99.90
8436;DHT22;4255;48.730;9.156;2023-08-17T01:12:30;21.40;99.90
8436;DHT22;4255;48.730;9.156;2023-08-17T01:15:15;21.50;99.90
8436;DHT22;4255;48.730;9.156;2023-08-17T01:17:58;21.50;99.90
8436;DHT22;4255;48.730;9.156;2023-08-17T01:20:25;21.50;99.90
8436;DHT22;4255;48.730;9.156;2023-08-17T01:22:53;21.60;99.90
8436;DHT22;4255;48.730;9.156;2023-08-17T01:25:22;21.60;99.90
8436;DHT22;4255;48.730;9.156;2023-08-17T01:27:48;21.60;99.90
8436;DHT22;4255;48.730;9.156;2023-08-17T01:30:16;21.50;99.90
8436;DHT22;4255;48.730;9.156;2023-08-17T01:32:55;21.60;99.90
8436;DHT22;4255;48.730;9.156;2023-08-17T01:37:59;21.70;99.90
8436;DHT22;4255;48.730;9.156;2023-08-17T01:40:27;21.80;99.90
8436;DHT22;4255;48.730;9.156;2023-08-17T01:42:54;21.80;99.90
8436;DHT22;4255;48.730;9.156;2023-08-17T01:45:21;21.80;99.90
8436;DHT22;4255;48.730;9.156;2023-08-17T01:47:49;21.90;99.90
8436;DHT22;4255;48.730;9.156;2023-08-17T01:50:14;22.00;99.90
8436;DHT22;4255;48.730;9.156;2023-08-17T01:52:40;22.00;99.90
8436;DHT22;4255;48.730;9.156;2023-08-17T01:55:06;22.10;99.90
8436;DHT22;4255;48.730;9.156;2023-08-17T01:57:31;22.10;99.90
8436;DHT22;4255;48.730;9.156;2023-08-17T01:59:57;22.10;99.90
8436;DHT22;4255;48.730;9.156;2023-08-17T02:02:23;22.20;99.90
8436;DHT22;4255;48.730;9.156;2023-08-17T02:04:49;22.10;99.90
8436;DHT22;4255;48.730;9.156;2023-08-17T02:07:14;22.20;99.90
8436;DHT22;4255;48.730;9.156;2023-08-17T02:09:40;22.20;99.90
8436;DHT22;4255;48.730;9.156;2023-08-17T02:12:06;22.20;99.90
8436;DHT22;4255;48.730;9.156;2023-08-17T02:14:31;22.20;99.90
8436;DHT22;4255;48.730;9.156;2023-08-17T02:16:57;22.20;99.90
8436;DHT22;4255;48.730;9.156;2023-08-17T02:19:22;22.30;99.90
8436;DHT22;4255;48.730;9.156;2023-08-17T02:21:48;22.20;99.90
8436;DHT22;4255;48.730;9.156;2023-08-17T02:24:14;22.20;99.90
8436;DHT22;4255;48.730;9.156;2023-08-17T02:26:39;22.20;99.90
8436;DHT22;4255;48.730;9.156;2023-08-17T02:29:06;22.20;99.90
8436;DHT22;4255;48.730;9.156;2023-08-17T02:31:32;22.10;99.90
8436;DHT22;4255;48.730;9.156;2023-08-17T02:33:58;22.00;99.90
8436;DHT22;4255;48.730;9.156;2023-08-17T02:36:27;21.90;99.90
8436;DHT22;4255;48.730;9.156;2023-08-17T02:38:52;21.80;99.90
8436;DHT22;4255;48.730;9.156;2023-08-17T02:41:18;21.90;99.90
8436;DHT22;4255;48.730;9.156;2023-08-17T02:43:44;21.90;99.90
8436;DHT22;4255;48.730;9.156;2023-08-17T02:46:12;21.90;99.90
8436;DHT22;4255;48.730;9.156;2023-08-17T02:48:38;22.00;99.90
8436;DHT22;4255;48.730;9.156;2023-08-17T02:51:03;22.00;99.90
8436;DHT22;4255;48.730;9.156;2023-08-17T02:53:29;22.00;99.90
8436;DHT22;4255;48.730;9.156;2023-08-17T02:55:55;22.00;99.90
8436;DHT22;4255;48.730;9.156;2023-08-17T02:58:20;21.90;99.90
8436;DHT22;4255;48.730;9.156;2023-08-17T03:00:46;21.90;99.90
8436;DHT22;4255;48.730;9.156;2023-08-17T03:03:12;22.00;99.90
8436;DHT22;4255;48.730;9.156;2023-08-17T03:05:37;22.00;99.90
8436;DHT22;4255;48.730;9.156;2023-08-17T03:08:03;22.10;99.90
8436;DHT22;4255;48.730;9.156;2023-08-17T03:10:29;22.10;99.90
8436;DHT22;4255;48.730;9.156;2023-08-17T03:12:55;22.10;99.90
8436;DHT22;4255;48.730;9.156;2023-08-17T03:15:20;22.20;99.90
8436;DHT22;4255;48.730;9.156;2023-08-17T03:17:46;22.20;99.90
8436;DHT22;4255;48.730;9.156;2023-08-17T03:20:12;22.20;99.90
8436;DHT22;4255;48.730;9.156;2023-08-17T03:22:37;22.20;99.90
8436;DHT22;4255;48.730;9.156;2023-08-17T03:25:03;22.30;99.90
8436;DHT22;4255;48.730;9.156;2023-08-17T03:27:29;22.20;99.90
8436;DHT22;4255;48.730;9.156;2023-08-17T03:29:54;22.20;99.90
8436;DHT22;4255;48.730;9.156;2023-08-17T03:32:21;22.20;99.90
8436;DHT22;4255;48.730;9.156;2023-08-17T03:34:47;22.10;99.90
8436;DHT22;4255;48.730;9.156;2023-08-17T03:37:12;22.10;99.90
8436;DHT22;4255;48.730;9.156;2023-08-17T03:39:38;22.10;99.90
8436;DHT22;4255;48.730;9.156;2023-08-17T03:42:03;22.20;99.90
8436;DHT22;4255;48.730;9.156;2023-08-17T03:44:29;22.20;99.90
8436;DHT22;4255;48.730;9.156;2023-08-17T03:46:54;22.10;99.90
8436;DHT22;4255;48.730;9.156;2023-08-17T03:49:20;22.10;99.90
8436;DHT22;4255;48.730;9.156;2023-08-17T03:51:46;22.20;99.90
8436;DHT22;4255;48.730;9.156;2023-08-17T03:54:12;22.20;99.90
8436;DHT22;4255;48.730;9.156;2023-08-17T03:56:38;22.20;99.90
8436;DHT22;4255;48.730;9.156;2023-08-17T03:59:04;22.20;99.90
8436;DHT22;4255;48.730;9.156;2023-08-17T04:01:30;22.20;99.90
8436;DHT22;4255;48.730;9.156;2023-08-17T04:03:55;22.10;99.90
8436;DHT22;4255;48.730;9.156;2023-08-17T04:06:21;22.00;99.90
8436;DHT22;4255;48.730;9.156;2023-08-17T04:08:46;21.90;99.90
8436;DHT22;4255;48.730;9.156;2023-08-17T04:11:12;21.90;99.90
8436;DHT22;4255;48.730;9.156;2023-08-17T04:13:38;21.90;99.90
8436;DHT22;4255;48.730;9.156;2023-08-17T04:16:03;22.00;99.90
8436;DHT22;4255;48.730;9.156;2023-08-17T04:18:29;22.10;99.90
8436;DHT22;4255;48.730;9.156;2023-08-17T04:20:54;22.10;99.90
8436;DHT22;4255;48.730;9.156;2023-08-17T04:23:20;22.00;99.90
8436;DHT22;4255;48.730;9.156;2023-08-17T04:25:46;22.00;99.90
8436;DHT22;4255;48.730;9.156;2023-08-17T04:28:13;22.10;99.90
8436;DHT22;4255;48.730;9.156;2023-08-17T04:30:39;21.90;99.90
8436;DHT22;4255;48.730;9.156;2023-08-17T04:33:04;21.80;99.90
8436;DHT22;4255;48.730;9.156;2023-08-17T04:35:30;21.70;99.90
8436;DHT22;4255;48.730;9.156;2023-08-17T04:37:56;21.80;99.90
8436;DHT22;4255;48.730;9.156;2023-08-17T04:40:21;21.90;99.90
8436;DHT22;4255;48.730;9.156;2023-08-17T04:42:47;22.00;99.90
8436;DHT22;4255;48.730;9.156;2023-08-17T04:45:13;22.00;99.90
8436;DHT22;4255;48.730;9.156;2023-08-17T04:47:39;22.00;99.90
8436;DHT22;4255;48.730;9.156;2023-08-17T04:50:05;21.90;99.90
8436;DHT22;4255;48.730;9.156;2023-08-17T04:52:31;21.80;99.90
8436;DHT22;4255;48.730;9.156;2023-08-17T04:54:57;21.80;99.90
8436;DHT22;4255;48.730;9.156;2023-08-17T04:57:22;21.80;99.90
8436;DHT22;4255;48.730;9.156;2023-08-17T04:59:48;21.80;99.90
8436;DHT22;4255;48.730;9.156;2023-08-17T05:02:13;22.00;99.90
8436;DHT22;4255;48.730;9.156;2023-08-17T05:04:39;22.00;99.90
8436;DHT22;4255;48.730;9.156;2023-08-17T05:07:05;22.00;99.90
8436;DHT22;4255;48.730;9.156;2023-08-17T05:09:31;22.10;99.90
8436;DHT22;4255;48.730;9.156;2023-08-17T05:11:57;22.20;99.90
8436;DHT22;4255;48.730;9.156;2023-08-17T05:14:22;21.90;99.90
8436;DHT22;4255;48.730;9.156;2023-08-17T05:16:48;22.00;99.90
8436;DHT22;4255;48.730;9.156;2023-08-17T05:19:13;22.00;99.90
8436;DHT22;4255;48.730;9.156;2023-08-17T05:21:39;21.90;99.90
8436;DHT22;4255;48.730;9.156;2023-08-17T05:24:05;21.70;99.90
8436;DHT22;4255;48.730;9.156;2023-08-17T05:26:31;21.80;99.90
8436;DHT22;4255;48.730;9.156;2023-08-17T05:28:57;21.90;99.90
8436;DHT22;4255;48.730;9.156;2023-08-17T05:31:22;21.80;99.90
8436;DHT22;4255;48.730;9.156;2023-08-17T05:33:48;21.90;99.90
8436;DHT22;4255;48.730;9.156;2023-08-17T05:36:13;21.90;99.90
8436;DHT22;4255;48.730;9.156;2023-08-17T05:38:39;22.00;99.90
8436;DHT22;4255;48.730;9.156;2023-08-17T05:41:05;22.00;99.90
8436;DHT22;4255;48.730;9.156;2023-08-17T05:43:31;22.10;99.90
8436;DHT22;4255;48.730;9.156;2023-08-17T05:45:59;21.90;99.90
8436;DHT22;4255;48.730;9.156;2023-08-17T05:48:28;22.00;99.90
8436;DHT22;4255;48.730;9.156;2023-08-17T05:50:55;22.20;99.90
8436;DHT22;4255;48.730;9.156;2023-08-17T05:53:21;22.20;99.90
8436;DHT22;4255;48.730;9.156;2023-08-17T05:55:47;22.30;99.90
8436;DHT22;4255;48.730;9.156;2023-08-17T05:58:12;22.50;99.90
8436;DHT22;4255;48.730;9.156;2023-08-17T06:00:38;22.60;99.90
8436;DHT22;4255;48.730;9.156;2023-08-17T06:03:04;22.60;99.90
8436;DHT22;4255;48.730;9.156;2023-08-17T06:05:30;22.70;99.90
8436;DHT22;4255;48.730;9.156;2023-08-17T06:07:57;22.90;99.90
8436;DHT22;4255;48.730;9.156;2023-08-17T06:10:23;23.00;99.90
8436;DHT22;4255;48.730;9.156;2023-08-17T06:12:54;23.00;99.90
8436;DHT22;4255;48.730;9.156;2023-08-17T06:15:20;23.10;99.90
8436;DHT22;4255;48.730;9.156;2023-08-17T06:17:46;23.00;99.90
8436;DHT22;4255;48.730;9.156;2023-08-17T06:20:12;23.00;99.90
8436;DHT22;4255;48.730;9.156;2023-08-17T06:22:38;23.00;99.90
8436;DHT22;4255;48.730;9.156;2023-08-17T06:25:04;23.10;99.90
8436;DHT22;4255;48.730;9.156;2023-08-17T06:27:31;22.90;99.90
8436;DHT22;4255;48.730;9.156;2023-08-17T06:29:57;22.90;99.90
8436;DHT22;4255;48.730;9.156;2023-08-17T06:32:22;23.10;99.90
8436;DHT22;4255;48.730;9.156;2023-08-17T06:34:48;23.20;99.90
8436;DHT22;4255;48.730;9.156;2023-08-17T06:37:14;23.20;99.90
8436;DHT22;4255;48.730;9.156;2023-08-17T06:39:40;23.30;99.90
8436;DHT22;4255;48.730;9.156;2023-08-17T06:42:06;23.50;99.90
8436;DHT22;4255;48.730;9.156;2023-08-17T06:44:31;23.50;99.90
8436;DHT22;4255;48.730;9.156;2023-08-17T06:46:57;23.60;99.90
8436;DHT22;4255;48.730;9.156;2023-08-17T06:49:24;23.70;99.90
8436;DHT22;4255;48.730;9.156;2023-08-17T06:51:50;23.80;99.90
8436;DHT22;4255;48.730;9.156;2023-08-17T06:54:15;23.90;99.90
8436;DHT22;4255;48.730;9.156;2023-08-17T06:56:41;23.90;99.90
8436;DHT22;4255;48.730;9.156;2023-08-17T07:01:34;24.10;99.90
8436;DHT22;4255;48.730;9.156;2023-08-17T07:04:00;24.20;99.90
8436;DHT22;4255;48.730;9.156;2023-08-17T07:06:25;24.30;99.90
8436;DHT22;4255;48.730;9.156;2023-08-17T07:08:51;24.40;99.90
8436;DHT22;4255;48.730;9.156;2023-08-17T07:11:18;24.40;99.90
8436;DHT22;4255;48.730;9.156;2023-08-17T07:13:44;24.50;99.90
8436;DHT22;4255;48.730;9.156;2023-08-17T07:16:09;24.60;99.90
8436;DHT22;4255;48.730;9.156;2023-08-17T07:18:35;24.60;99.90
8436;DHT22;4255;48.730;9.156;2023-08-17T07:21:01;24.60;99.90
8436;DHT22;4255;48.730;9.156;2023-08-17T07:23:26;24.60;99.90
8436;DHT22;4255;48.730;9.156;2023-08-17T07:25:52;24.80;99.90
8436;DHT22;4255;48.730;9.156;2023-08-17T07:28:17;24.90;99.90
8436;DHT22;4255;48.730;9.156;2023-08-17T07:30:43;24.90;99.90
8436;DHT22;4255;48.730;9.156;2023-08-17T07:33:08;24.80;99.90
8436;DHT22;4255;48.730;9.156;2023-08-17T07:35:34;24.80;99.90
8436;DHT22;4255;48.730;9.156;2023-08-17T07:38:00;25.00;99.90
8436;DHT22;4255;48.730;9.156;2023-08-17T07:40:25;25.20;99.90
8436;DHT22;4255;48.730;9.156;2023-08-17T07:42:51;25.30;99.90
8436;DHT22;4255;48.730;9.156;2023-08-17T07:45:16;25.20;99.90
8436;DHT22;4255;48.730;9.156;2023-08-17T07:47:42;25.20;99.90
8436;DHT22;4255;48.730;9.156;2023-08-17T07:50:08;25.30;99.90
8436;DHT22;4255;48.730;9.156;2023-08-17T07:52:34;25.50;99.90
8436;DHT22;4255;48.730;9.156;2023-08-17T07:54:59;25.60;99.90
8436;DHT22;4255;48.730;9.156;2023-08-17T07:57:25;25.90;99.90
8436;DHT22;4255;48.730;9.156;2023-08-17T07:59:50;26.10;99.90
8436;DHT22;4255;48.730;9.156;2023-08-17T08:02:17;26.10;99.20
8436;DHT22;4255;48.730;9.156;2023-08-17T08:04:42;26.10;93.70
8436;DHT22;4255;48.730;9.156;2023-08-17T08:07:10;26.00;95.90
8436;DHT22;4255;48.730;9.156;2023-08-17T08:09:35;25.90;99.90
8436;DHT22;4255;48.730;9.156;2023-08-17T08:12:02;25.80;99.90
8436;DHT22;4255;48.730;9.156;2023-08-17T08:14:27;25.80;99.90
8436;DHT22;4255;48.730;9.156;2023-08-17T08:16:53;25.90;99.90
8436;DHT22;4255;48.730;9.156;2023-08-17T08:19:19;25.80;99.90
8436;DHT22;4255;48.730;9.156;2023-08-17T08:21:44;26.00;99.90
8436;DHT22;4255;48.730;9.156;2023-08-17T08:24:10;26.10;99.90
8436;DHT22;4255;48.730;9.156;2023-08-17T08:26:35;26.10;89.50
8436;DHT22;4255;48.730;9.156;2023-08-17T08:29:01;26.30;69.40
8436;DHT22;4255;48.730;9.156;2023-08-17T08:31:26;26.20;93.40
8436;DHT22;4255;48.730;9.156;2023-08-17T08:33:52;26.20;66.30
8436;DHT22;4255;48.730;9.156;2023-08-17T08:36:18;26.30;72.40
8436;DHT22;4255;48.730;9.156;2023-08-17T08:38:44;26.40;65.30
8436;DHT22;4255;48.730;9.156;2023-08-17T08:41:11;26.30;62.80
8436;DHT22;4255;48.730;9.156;2023-08-17T08:43:38;26.10;98.80
8436;DHT22;4255;48.730;9.156;2023-08-17T08:46:04;26.10;99.90
8436;DHT22;4255;48.730;9.156;2023-08-17T08:48:31;26.30;92.30
8436;DHT22;4255;48.730;9.156;2023-08-17T08:51:00;26.50;18.60
8436;DHT22;4255;48.730;9.156;2023-08-17T08:53:32;26.80;1.00
8436;DHT22;4255;48.730;9.156;2023-08-17T08:56:03;27.10;1.00
8436;DHT22;4255;48.730;9.156;2023-08-17T08:58:29;27.20;1.00
8436;DHT22;4255;48.730;9.156;2023-08-17T09:00:57;27.30;1.00
8436;DHT22;4255;48.730;9.156;2023-08-17T09:03:25;27.50;1.00
8436;DHT22;4255;48.730;9.156;2023-08-17T09:05:51;27.70;1.00
8436;DHT22;4255;48.730;9.156;2023-08-17T09:08:21;27.80;1.00
8436;DHT22;4255;48.730;9.156;2023-08-17T09:10:50;28.00;1.00
8436;DHT22;4255;48.730;9.156;2023-08-17T09:13:16;28.10;1.00
8436;DHT22;4255;48.730;9.156;2023-08-17T09:15:41;28.30;1.00
8436;DHT22;4255;48.730;9.156;2023-08-17T09:18:07;28.50;1.00
8436;DHT22;4255;48.730;9.156;2023-08-17T09:20:47;28.50;1.00
8436;DHT22;4255;48.730;9.156;2023-08-17T09:23:13;28.70;1.00
8436;DHT22;4255;48.730;9.156;2023-08-17T09:25:40;28.80;99.90
8436;DHT22;4255;48.730;9.156;2023-08-17T09:28:08;29.00;1.00
8436;DHT22;4255;48.730;9.156;2023-08-17T09:30:49;28.90;1.00
8436;DHT22;4255;48.730;9.156;2023-08-17T09:33:16;28.90;1.00
8436;DHT22;4255;48.730;9.156;2023-08-17T09:35:42;28.90;1.00
8436;DHT22;4255;48.730;9.156;2023-08-17T09:38:07;29.00;99.90
8436;DHT22;4255;48.730;9.156;2023-08-17T09:40:33;29.10;70.90
8436;DHT22;4255;48.730;9.156;2023-08-17T09:42:59;29.10;1.00
8436;DHT22;4255;48.730;9.156;2023-08-17T09:45:27;29.30;1.00
8436;DHT22;4255;48.730;9.156;2023-08-17T09:47:53;29.50;1.00
8436;DHT22;4255;48.730;9.156;2023-08-17T09:50:22;29.30;1.00
8436;DHT22;4255;48.730;9.156;2023-08-17T09:52:53;29.50;21.20
8436;DHT22;4255;48.730;9.156;2023-08-17T09:55:20;29.60;99.90
8436;DHT22;4255;48.730;9.156;2023-08-17T09:57:52;29.60;99.90
8436;DHT22;4255;48.730;9.156;2023-08-17T10:00:20;29.80;1.00
8436;DHT22;4255;48.730;9.156;2023-08-17T10:02:50;29.90;99.90
8436;DHT22;4255;48.730;9.156;2023-08-17T10:05:18;30.10;1.00
8436;DHT22;4255;48.730;9.156;2023-08-17T10:07:50;30.40;1.00
8436;DHT22;4255;48.730;9.156;2023-08-17T10:10:26;30.40;1.00
8436;DHT22;4255;48.730;9.156;2023-08-17T10:13:22;30.40;99.90
8436;DHT22;4255;48.730;9.156;2023-08-17T10:21:28;30.20;99.90
8436;DHT22;4255;48.730;9.156;2023-08-17T10:23:55;30.30;1.00
8436;DHT22;4255;48.730;9.156;2023-08-17T10:26:23;30.20;1.00
8436;DHT22;4255;48.730;9.156;2023-08-17T10:28:50;30.30;1.00
8436;DHT22;4255;48.730;9.156;2023-08-17T10:31:17;30.40;1.00
8436;DHT22;4255;48.730;9.156;2023-08-17T10:33:43;30.50;99.90
8436;DHT22;4255;48.730;9.156;2023-08-17T10:36:12;30.60;1.00
8436;DHT22;4255;48.730;9.156;2023-08-17T10:38:38;30.70;1.00
8436;DHT22;4255;48.730;9.156;2023-08-17T10:41:11;30.60;99.90
8436;DHT22;4255;48.730;9.156;2023-08-17T10:43:56;30.70;99.90
8436;DHT22;4255;48.730;9.156;2023-08-17T10:46:35;30.90;1.00
8436;DHT22;4255;48.730;9.156;2023-08-17T10:49:03;30.90;99.90
8436;DHT22;4255;48.730;9.156;2023-08-17T10:51:30;30.90;99.90
8436;DHT22;4255;48.730;9.156;2023-08-17T10:53:58;31.20;1.00
8436;DHT22;4255;48.730;9.156;2023-08-17T10:56:27;31.50;1.00
8436;DHT22;4255;48.730;9.156;2023-08-17T10:58:52;31.60;1.00
8436;DHT22;4255;48.730;9.156;2023-08-17T11:01:35;31.70;1.00
8436;DHT22;4255;48.730;9.156;2023-08-17T11:04:16;31.60;1.00
8436;DHT22;4255;48.730;9.156;2023-08-17T11:06:43;31.40;1.00
8436;DHT22;4255;48.730;9.156;2023-08-17T11:09:09;31.30;1.00
8436;DHT22;4255;48.730;9.156;2023-08-17T11:11:34;31.10;99.90
8436;DHT22;4255;48.730;9.156;2023-08-17T11:14:00;31.00;1.00
8436;DHT22;4255;48.730;9.156;2023-08-17T11:16:26;31.00;1.00
8436;DHT22;4255;48.730;9.156;2023-08-17T11:18:52;31.40;99.90
8436;DHT22;4255;48.730;9.156;2023-08-17T11:21:18;31.50;99.90
8436;DHT22;4255;48.730;9.156;2023-08-17T11:23:44;31.40;99.90
8436;DHT22;4255;48.730;9.156;2023-08-17T11:26:09;31.60;1.00
8436;DHT22;4255;48.730;9.156;2023-08-17T11:28:36;31.40;99.90
8436;DHT22;4255;48.730;9.156;2023-08-17T11:31:07;31.50;99.90
8436;DHT22;4255;48.730;9.156;2023-08-17T11:33:34;31.70;99.90
8436;DHT22;4255;48.730;9.156;2023-08-17T11:36:05;32.00;99.90
8436;DHT22;4255;48.730;9.156;2023-08-17T11:38:36;32.30;99.90
8436;DHT22;4255;48.730;9.156;2023-08-17T11:41:03;32.40;99.90
8436;DHT22;4255;48.730;9.156;2023-08-17T11:43:30;32.40;99.90
8436;DHT22;4255;48.730;9.156;2023-08-17T11:45:56;32.20;99.90
8436;DHT22;4255;48.730;9.156;2023-08-17T11:48:23;31.90;99.90
8436;DHT22;4255;48.730;9.156;2023-08-17T11:50:49;31.90;99.90
8436;DHT22;4255;48.730;9.156;2023-08-17T11:53:15;31.80;99.90
8436;DHT22;4255;48.730;9.156;2023-08-17T11:55:41;31.40;99.90
8436;DHT22;4255;48.730;9.156;2023-08-17T11:58:07;31.00;1.00
8436;DHT22;4255;48.730;9.156;2023-08-17T12:00:40;31.10;1.00
8436;DHT22;4255;48.730;9.156;2023-08-17T12:03:06;31.30;1.00
8436;DHT22;4255;48.730;9.156;2023-08-17T12:05:32;31.40;99.90
8436;DHT22;4255;48.730;9.156;2023-08-17T12:08:01;31.50;99.90
8436;DHT22;4255;48.730;9.156;2023-08-17T12:10:28;31.60;99.90
8436;DHT22;4255;48.730;9.156;2023-08-17T12:12:57;31.80;99.90
8436;DHT22;4255;48.730;9.156;2023-08-17T12:15:29;32.10;99.90
8436;DHT22;4255;48.730;9.156;2023-08-17T12:17:59;32.20;99.90
8436;DHT22;4255;48.730;9.156;2023-08-17T12:20:24;31.90;99.90
8436;DHT22;4255;48.730;9.156;2023-08-17T12:22:50;31.30;1.00
8436;DHT22;4255;48.730;9.156;2023-08-17T12:25:16;30.80;99.90
8436;DHT22;4255;48.730;9.156;2023-08-17T12:27:41;30.60;1.00
8436;DHT22;4255;48.730;9.156;2023-08-17T12:30:23;30.50;99.90
8436;DHT22;4255;48.730;9.156;2023-08-17T12:32:49;30.40;99.90
8436;DHT22;4255;48.730;9.156;2023-08-17T12:35:15;30.00;1.00
8436;DHT22;4255;48.730;9.156;2023-08-17T12:37:40;30.00;1.00
8436;DHT22;4255;48.730;9.156;2023-08-17T12:40:06;29.80;99.90
8436;DHT22;4255;48.730;9.156;2023-08-17T12:42:33;29.70;99.90
8436;DHT22;4255;48.730;9.156;2023-08-17T12:44:59;29.80;1.00
8436;DHT22;4255;48.730;9.156;2023-08-17T12:47:24;29.90;1.00
8436;DHT22;4255;48.730;9.156;2023-08-17T12:49:50;29.60;1.00
8436;DHT22;4255;48.730;9.156;2023-08-17T12:52:15;29.20;1.00
8436;DHT22;4255;48.730;9.156;2023-08-17T12:54:41;28.70;1.00
8436;DHT22;4255;48.730;9.156;2023-08-17T12:57:07;28.30;1.00
8436;DHT22;4255;48.730;9.156;2023-08-17T12:59:32;28.20;6.70
8436;DHT22;4255;48.730;9.156;2023-08-17T13:01:58;28.00;18.90
8436;DHT22;4255;48.730;9.156;2023-08-17T13:04:24;27.90;43.50
8436;DHT22;4255;48.730;9.156;2023-08-17T13:06:49;27.80;56.90
8436;DHT22;4255;48.730;9.156;2023-08-17T13:09:16;27.70;75.90
8436;DHT22;4255;48.730;9.156;2023-08-17T13:11:44;27.60;98.90
8436;DHT22;4255;48.730;9.156;2023-08-17T13:14:10;27.50;99.90
8436;DHT22;4255;48.730;9.156;2023-08-17T13:16:35;27.60;99.90
8436;DHT22;4255;48.730;9.156;2023-08-17T13:19:01;27.50;99.90
8436;DHT22;4255;48.730;9.156;2023-08-17T13:21:26;27.50;99.90
8436;DHT22;4255;48.730;9.156;2023-08-17T13:23:52;27.60;99.90
8436;DHT22;4255;48.730;9.156;2023-08-17T13:26:17;27.60;99.90
8436;DHT22;4255;48.730;9.156;2023-08-17T13:28:43;27.40;99.90
8436;DHT22;4255;48.730;9.156;2023-08-17T13:31:09;27.10;99.90
8436;DHT22;4255;48.730;9.156;2023-08-17T13:33:34;27.10;99.90
8436;DHT22;4255;48.730;9.156;2023-08-17T13:36:00;26.80;99.90
8436;DHT22;4255;48.730;9.156;2023-08-17T13:38:26;26.50;99.90
8436;DHT22;4255;48.730;9.156;2023-08-17T13:40:51;26.60;99.90
8436;DHT22;4255;48.730;9.156;2023-08-17T13:43:17;26.20;99.90
8436;DHT22;4255;48.730;9.156;2023-08-17T13:45:42;25.80;99.90
8436;DHT22;4255;48.730;9.156;2023-08-17T13:48:08;25.90;99.90
8436;DHT22;4255;48.730;9.156;2023-08-17T13:50:36;26.00;99.90
8436;DHT22;4255;48.730;9.156;2023-08-17T13:53:03;26.10;99.90
8436;DHT22;4255;48.730;9.156;2023-08-17T13:55:28;26.10;99.90
8436;DHT22;4255;48.730;9.156;2023-08-17T13:57:54;26.10;99.90
8436;DHT22;4255;48.730;9.156;2023-08-17T14:00:24;26.00;99.90
8436;DHT22;4255;48.730;9.156;2023-08-17T14:02:50;25.90;99.90
8436;DHT22;4255;48.730;9.156;2023-08-17T14:05:16;25.80;99.90
8436;DHT22;4255;48.730;9.156;2023-08-17T14:07:41;25.90;99.90
8436;DHT22;4255;48.730;9.156;2023-08-17T14:10:07;25.90;99.90
8436;DHT22;4255;48.730;9.156;2023-08-17T14:12:33;26.00;99.90
8436;DHT22;4255;48.730;9.156;2023-08-17T14:14:59;26.10;99.90
8436;DHT22;4255;48.730;9.156;2023-08-17T14:17:25;26.00;99.90
8436;DHT22;4255;48.730;9.156;2023-08-17T14:19:50;26.00;99.90
8436;DHT22;4255;48.730;9.156;2023-08-17T14:22:16;25.90;99.90
8436;DHT22;4255;48.730;9.156;2023-08-17T14:24:41;25.90;99.90
8436;DHT22;4255;48.730;9.156;2023-08-17T14:27:07;25.80;99.90
8436;DHT22;4255;48.730;9.156;2023-08-17T14:29:33;25.80;99.90
8436;DHT22;4255;48.730;9.156;2023-08-17T14:31:58;25.80;99.90
8436;DHT22;4255;48.730;9.156;2023-08-17T14:34:24;25.70;99.90
8436;DHT22;4255;48.730;9.156;2023-08-17T14:36:49;25.70;99.90
8436;DHT22;4255;48.730;9.156;2023-08-17T14:39:15;25.90;99.90
8436;DHT22;4255;48.730;9.156;2023-08-17T14:41:40;25.70;99.90
8436;DHT22;4255;48.730;9.156;2023-08-17T14:44:06;25.30;99.90
8436;DHT22;4255;48.730;9.156;2023-08-17T14:46:32;25.20;99.90
8436;DHT22;4255;48.730;9.156;2023-08-17T14:48:57;25.40;99.90
8436;DHT22;4255;48.730;9.156;2023-08-17T14:51:24;25.40;99.90
8436;DHT22;4255;48.730;9.156;2023-08-17T14:53:50;25.40;99.90
8436;DHT22;4255;48.730;9.156;2023-08-17T14:56:15;25.40;99.90
8436;DHT22;4255;48.730;9.156;2023-08-17T14:58:41;25.60;99.90
8436;DHT22;4255;48.730;9.156;2023-08-17T15:01:07;25.90;99.90
8436;DHT22;4255;48.730;9.156;2023-08-17T15:03:33;26.00;99.90
8436;DHT22;4255;48.730;9.156;2023-08-17T15:05:58;26.10;99.90
8436;DHT22;4255;48.730;9.156;2023-08-17T15:08:24;26.30;99.90
8436;DHT22;4255;48.730;9.156;2023-08-17T15:10:50;26.30;99.90
8436;DHT22;4255;48.730;9.156;2023-08-17T15:13:16;26.10;99.90
8436;DHT22;4255;48.730;9.156;2023-08-17T15:15:42;26.20;99.90
8436;DHT22;4255;48.730;9.156;2023-08-17T15:18:09;26.50;99.90
8436;DHT22;4255;48.730;9.156;2023-08-17T15:20:34;26.70;99.90
8436;DHT22;4255;48.730;9.156;2023-08-17T15:23:00;26.80;99.90
8436;DHT22;4255;48.730;9.156;2023-08-17T15:25:25;27.00;99.90
8436;DHT22;4255;48.730;9.156;2023-08-17T15:27:51;27.10;99.90
8436;DHT22;4255;48.730;9.156;2023-08-17T15:30:17;27.30;99.90
8436;DHT22;4255;48.730;9.156;2023-08-17T15:32:42;27.40;99.90
8436;DHT22;4255;48.730;9.156;2023-08-17T15:35:10;27.40;99.90
8436;DHT22;4255;48.730;9.156;2023-08-17T15:37:36;27.70;99.90
8436;DHT22;4255;48.730;9.156;2023-08-17T15:40:03;27.70;99.90
8436;DHT22;4255;48.730;9.156;2023-08-17T15:42:29;27.80;99.90
8436;DHT22;4255;48.730;9.156;2023-08-17T15:44:55;27.80;99.90
8436;DHT22;4255;48.730;9.156;2023-08-17T15:47:20;27.90;99.90
8436;DHT22;4255;48.730;9.156;2023-08-17T15:49:46;28.00;96.60
8436;DHT22;4255;48.730;9.156;2023-08-17T15:52:11;28.10;91.70
8436;DHT22;4255;48.730;9.156;2023-08-17T15:54:37;28.20;80.40
8436;DHT22;4255;48.730;9.156;2023-08-17T15:57:06;28.40;45.00
8436;DHT22;4255;48.730;9.156;2023-08-17T15:59:31;28.40;38.70
8436;DHT22;4255;48.730;9.156;2023-08-17T16:01:57;28.20;36.60
8436;DHT22;4255;48.730;9.156;2023-08-17T16:04:23;28.20;38.20
8436;DHT22;4255;48.730;9.156;2023-08-17T16:06:48;28.30;31.90
8436;DHT22;4255;48.730;9.156;2023-08-17T16:09:14;28.40;17.70
8436;DHT22;4255;48.730;9.156;2023-08-17T16:11:39;28.50;29.40